EW4022 Weather Reports


Display with metric or nautical units.
time (UTC)temp
F
wind
direction
speed
MPH
gust
MPH
rain 1hr
in
rain 24hr
in
rain mn
in
humidity
%
barometer
mb
20260508054554 45 119 0.0 2.0 0.00 0.00 0.00 84 975.4
20260508054055 45 119 0.0 2.0 0.00 0.00 0.00 84 975.3
20260508053552 45 119 0.0 3.0 0.00 0.00 0.00 84 975.3
20260508053059 45 119 0.0 3.0 0.00 0.00 0.00 85 975.2
20260508052552 45 119 0.0 0.0 0.00 0.00 0.00 85 975.1
20260508052050 45 119 0.0 3.0 0.00 0.00 0.00 84 975.0
20260508051615 45 119 1.0 3.0 0.00 0.00 0.00 84 975.0
20260508051049 45 119 0.0 2.0 0.00 0.00 0.00 84 974.9
20260508050549 45 119 0.0 2.0 0.00 0.00 0.00 84 974.8
20260508050048 45 119 0.0 2.0 0.00 0.00 0.00 84 974.7
20260508045547 45 119 0.0 1.0 0.00 0.00 0.00 83 974.7
20260508045048 45 119 0.0 3.0 0.00 0.00 0.00 83 974.5
20260508044546 45 119 0.0 3.0 0.00 0.00 0.00 83 974.5
20260508044046 46 118 1.0 3.0 0.00 0.00 0.00 83 974.5
20260508043545 46 118 1.0 3.0 0.00 0.00 0.00 83 974.5
20260508043044 46 116 0.0 3.0 0.00 0.00 0.00 82 974.5
20260508042544 46 116 0.0 2.0 0.00 0.00 0.00 82 974.5
20260508042043 46 116 0.0 2.0 0.00 0.00 0.00 82 974.4
20260508041545 46 117 0.0 2.0 0.00 0.00 0.00 82 974.5
20260508041041 46 116 0.0 2.0 0.00 0.00 0.00 81 974.5
20260508040540 46 116 1.0 2.0 0.00 0.00 0.00 81 974.5
20260508040038 47 116 1.0 2.0 0.00 0.00 0.00 81 974.3
20260508035539 47 116 0.0 2.0 0.00 0.00 0.00 81 974.1
20260508035037 47 117 1.0 3.0 0.00 0.00 0.00 81 974.1
20260508034538 47 117 0.0 3.0 0.00 0.00 0.00 81 974.0
20260508034035 47 117 0.0 1.0 0.00 0.00 0.00 81 974.1
20260508033535 47 116 0.0 1.0 0.00 0.00 0.00 81 974.2
20260508033043 47 117 0.0 0.0 0.00 0.00 0.00 82 974.2
20260508032534 48 117 0.0 0.0 0.00 0.00 0.00 81 974.2
20260508032033 48 116 0.0 0.0 0.00 0.00 0.00 81 974.1
20260508031532 48 117 0.0 0.0 0.00 0.00 0.00 81 974.0
20260508031031 48 117 0.0 0.0 0.00 0.00 0.00 81 973.9
20260508030534 48 116 0.0 0.0 0.00 0.00 0.00 81 973.9
20260508030030 48 116 0.0 0.0 0.00 0.00 0.00 81 973.9
20260508025532 49 116 0.0 2.0 0.00 0.04 0.00 81 973.8
20260508025028 49 117 0.0 2.0 0.00 0.04 0.00 80 973.8
20260508024531 49 116 1.0 2.0 0.00 0.04 0.00 80 973.8
20260508024026 49 117 0.0 2.0 0.00 0.04 0.00 79 973.7
20260508023525 50 117 0.0 2.0 0.00 0.04 0.00 79 973.7
20260508023030 50 116 1.0 2.0 0.00 0.04 0.00 79 973.7
20260508022523 50 117 0.0 2.0 0.00 0.04 0.00 78 973.6
20260508022022 50 116 0.0 2.0 0.00 0.04 0.00 78 973.4
20260508021530 50 116 0.0 1.0 0.00 0.04 0.00 77 973.4
20260508021027 51 117 0.0 2.0 0.00 0.04 0.00 77 973.3
20260508020518 51 117 0.0 3.0 0.00 0.04 0.00 77 973.2
20260508020018 51 116 1.0 3.0 0.00 0.04 0.00 77 973.1
20260508015517 51 117 0.0 2.0 0.00 0.05 0.00 77 972.9
20260508015016 51 117 0.0 2.0 0.00 0.05 0.00 76 972.9
20260508014516 52 116 0.0 3.0 0.00 0.05 0.00 76 972.8
20260508014015 52 116 1.0 3.0 0.00 0.05 0.00 75 972.7
20260508013513 52 116 0.0 3.0 0.00 0.05 0.00 75 972.6
20260508013013 52 116 0.0 3.0 0.00 0.05 0.00 74 972.7
20260508012511 53 116 1.0 3.0 0.00 0.05 0.00 73 972.6
20260508012010 53 116 0.0 1.0 0.00 0.05 0.00 72 972.4
20260508011509 53 116 0.0 2.0 0.00 0.05 0.00 72 972.4
20260508011008 54 116 0.0 2.0 0.00 0.05 0.00 71 972.3
20260508010507 54 116 0.0 2.0 0.00 0.05 0.00 71 972.2
20260508010013 54 116 0.0 3.0 0.00 0.05 0.00 70 972.2
20260508005505 54 116 0.0 2.0 0.00 0.05 0.00 69 972.1
20260508005005 55 116 0.0 1.0 0.00 0.05 0.00 68 971.9
20260508004503 55 116 0.0 2.0 0.00 0.05 0.00 68 971.9
20260508004003 56 116 0.0 2.0 0.00 0.05 0.00 66 972.0
20260508003501 56 116 0.0 2.0 0.00 0.05 0.00 66 971.9
20260508003117 57 116 0.0 2.0 0.00 0.05 0.00 64 972.0
20260508002558 58 116 0.0 1.0 0.00 0.05 0.00 62 972.0
20260508002057 59 116 0.0 0.0 0.00 0.05 0.00 61 971.9
20260508001600 60 116 0.0 9.0 0.00 0.05 0.00 60 971.8
20260508001057 60 116 0.0 9.0 0.00 0.05 0.00 57 971.7
20260508000557 60 50 0.0 2.0 0.00 0.05 0.00 57 971.8
20260508000056 60 50 1.0 6.0 0.00 0.05 0.00 57 971.7
20260507235556 60 50 2.0 6.0 0.00 0.05 0.00 56 971.6
20260507235056 60 11 1.0 7.0 0.00 0.05 0.00 57 971.6
20260507234556 60 35 1.0 5.0 0.00 0.05 0.00 58 971.5
20260507234055 60 36 2.0 5.0 0.00 0.05 0.00 58 971.5
20260507233555 60 249 0.0 3.0 0.00 0.05 0.00 63 971.4
20260507233055 61 249 0.0 3.0 0.00 0.05 0.00 63 971.4
20260507232554 61 249 1.0 3.0 0.00 0.05 0.00 61 971.3
20260507232054 62 249 0.0 1.0 0.00 0.05 0.00 61 971.2
20260507231556 62 249 0.0 3.0 0.00 0.05 0.00 59 971.1
20260507231054 62 249 0.0 7.0 0.00 0.05 0.00 57 971.1
20260507230554 62 274 1.0 6.0 0.00 0.05 0.00 56 970.9
20260507230110 62 227 2.0 7.0 0.00 0.05 0.00 55 970.9
20260507225554 62 187 1.0 7.0 0.00 0.05 0.00 54 970.9
20260507225054 62 271 2.0 6.0 0.00 0.05 0.00 55 970.8
20260507224554 63 271 0.0 7.0 0.00 0.05 0.00 56 970.9
20260507224053 63 270 1.0 7.0 0.00 0.05 0.00 54 970.8
20260507223553 63 192 2.0 7.0 0.00 0.05 0.00 55 970.8
20260507223155 63 128 3.0 7.0 0.00 0.05 0.00 54 970.8
20260507222553 64 200 1.0 7.0 0.00 0.05 0.00 54 970.8
20260507222052 64 194 2.0 7.0 0.00 0.05 0.00 56 970.8
20260507221552 64 16 1.0 5.0 0.00 0.05 0.00 55 970.6
20260507221051 64 225 0.0 6.0 0.00 0.05 0.00 54 970.5
20260507220551 65 207 1.0 6.0 0.00 0.05 0.00 56 970.5
20260507220052 65 207 1.0 9.0 0.00 0.05 0.00 55 970.4
20260507215553 65 248 1.0 9.0 0.00 0.05 0.00 54 970.3
20260507215050 66 265 0.0 4.0 0.00 0.05 0.00 55 970.3
20260507214557 66 271 1.0 7.0 0.00 0.05 0.00 56 970.2
20260507214051 66 44 2.0 8.0 0.00 0.05 0.00 54 970.1
20260507213551 66 200 2.0 8.0 0.00 0.05 0.00 56 970.1
20260507213114 66 199 3.0 6.0 0.00 0.05 0.00 54 970.1
20260507212554 66 54 1.0 6.0 0.00 0.05 0.00 56 970.1
20260507212049 66 198 1.0 7.0 0.00 0.05 0.00 56 970.1
20260507211549 65 238 0.0 7.0 0.00 0.05 0.00 58 970.1
20260507211048 64 273 0.0 7.0 0.00 0.05 0.00 59 970.2
20260507210549 64 21 0.0 10.0 0.00 0.05 0.00 61 970.1
20260507210049 64 248 3.0 10.0 0.00 0.05 0.00 61 970.0
20260507205546 65 9 0.0 2.0 0.00 0.05 0.00 68 970.0
20260507205047 64 10 0.0 2.0 0.00 0.05 0.00 67 969.9
20260507204547 63 9 0.0 2.0 0.00 0.05 0.00 69 969.9
20260507204044 63 9 0.0 4.0 0.00 0.05 0.00 69 969.9
20260507203544 62 9 0.0 4.0 0.00 0.05 0.00 70 969.8
20260507203044 62 9 1.0 4.0 0.00 0.05 0.00 70 969.9
20260507202544 62 9 0.0 3.0 0.00 0.05 0.00 70 969.9
20260507202048 62 9 1.0 5.0 0.00 0.05 0.00 70 969.9
20260507201549 62 9 1.0 6.0 0.00 0.05 0.00 70 969.9
20260507201042 62 175 0.0 6.0 0.00 0.05 0.00 68 969.9
20260507200542 63 13 1.0 5.0 0.00 0.05 0.00 67 970.1
20260507200053 63 13 2.0 9.0 0.00 0.05 0.00 68 970.1
20260507195540 63 16 2.0 12.0 0.00 0.05 0.00 69 970.2
20260507195040 63 24 2.0 6.0 0.00 0.05 0.00 67 970.4
20260507194540 63 22 2.0 6.0 0.00 0.05 0.00 68 970.5
20260507194039 63 5 1.0 4.0 0.00 0.05 0.00 69 970.6
20260507193540 62 5 0.0 4.0 0.00 0.05 0.00 68 970.7
20260507193045 62 30 1.0 4.0 0.00 0.05 0.00 69 970.8
20260507192542 61 30 1.0 4.0 0.00 0.05 0.00 69 970.9
20260507192038 61 274 0.0 4.0 0.00 0.05 0.00 70 971.0
20260507191538 61 274 0.0 3.0 0.00 0.05 0.00 70 971.1
20260507191042 61 274 0.0 3.0 0.00 0.05 0.00 71 971.2
20260507190537 60 274 0.0 4.0 0.00 0.05 0.00 71 971.0
20260507190039 60 275 1.0 4.0 0.00 0.05 0.00 71 971.1
20260507185536 60 273 1.0 4.0 0.00 0.05 0.00 72 971.4
20260507185037 60 275 1.0 3.0 0.00 0.05 0.00 73 971.4
20260507184537 60 275 0.0 3.0 0.00 0.05 0.00 73 971.5
20260507184036 59 275 0.0 4.0 0.00 0.05 0.00 74 971.5
20260507183539 59 275 1.0 3.0 0.00 0.05 0.00 74 971.6
20260507183039 59 275 0.0 2.0 0.00 0.05 0.00 76 971.6
20260507182535 59 275 0.0 3.0 0.00 0.05 0.00 76 971.6
20260507182035 59 275 0.0 3.0 0.00 0.05 0.00 76 971.5
20260507181535 59 274 0.0 4.0 0.00 0.05 0.00 76 971.5
20260507181034 59 274 0.0 4.0 0.00 0.05 0.00 75 971.6
20260507180535 59 274 1.0 4.0 0.00 0.05 0.00 74 971.6
20260507180035 59 360 1.0 4.0 0.00 0.05 0.00 75 971.5
20260507175533 60 246 0.0 3.0 0.00 0.05 0.00 75 971.5
20260507175033 60 245 0.0 3.0 0.00 0.05 0.00 75 971.6
20260507174544 60 248 0.0 2.0 0.00 0.05 0.00 74 971.6
20260507174034 60 248 0.0 2.0 0.00 0.05 0.00 76 971.7
20260507173532 59 248 0.0 3.0 0.00 0.05 0.00 77 971.5
20260507173036 59 248 0.0 3.0 0.00 0.05 0.00 76 971.6
20260507172538 59 248 0.0 3.0 0.00 0.05 0.00 76 971.6
20260507172032 59 248 0.0 5.0 0.00 0.05 0.00 76 971.8
20260507171531 59 235 1.0 4.0 0.00 0.05 0.00 76 971.6
20260507171032 59 232 0.0 4.0 0.00 0.05 0.00 76 971.7
20260507170533 59 235 0.0 4.0 0.00 0.05 0.00 77 971.7
20260507170031 59 235 1.0 3.0 0.00 0.05 0.00 77 971.5
20260507165532 59 245 0.0 4.0 0.00 0.05 0.00 77 971.7
20260507165031 59 245 2.0 4.0 0.00 0.05 0.00 77 971.8
20260507164531 59 234 0.0 2.0 0.00 0.05 0.00 77 971.8
20260507164031 59 234 1.0 4.0 0.00 0.05 0.00 76 971.8
20260507163532 59 234 0.0 4.0 0.00 0.05 0.00 77 971.7
20260507163032 59 233 1.0 6.0 0.00 0.05 0.00 77 971.7
20260507162531 59 208 2.0 6.0 0.00 0.05 0.00 76 971.7
20260507162033 60 239 2.0 6.0 0.00 0.05 0.00 77 971.7
20260507161532 60 240 2.0 6.0 0.00 0.05 0.00 77 971.5
20260507161029 60 222 1.0 5.0 0.00 0.05 0.00 77 971.6
20260507160530 60 217 2.0 6.0 0.00 0.05 0.00 77 971.7
20260507160032 60 200 1.0 6.0 0.00 0.05 0.00 77 971.7
20260507155529 60 214 0.0 4.0 0.00 0.05 0.00 78 971.8
20260507155029 60 213 0.0 3.0 0.00 0.05 0.00 78 971.9
20260507154531 60 213 0.0 1.0 0.00 0.05 0.00 78 972.0
20260507154030 60 213 0.0 3.0 0.00 0.05 0.00 78 972.1
20260507153528 60 213 0.0 2.0 0.00 0.05 0.00 78 972.1
20260507153034 60 212 0.0 3.0 0.00 0.05 0.00 78 972.2
20260507152529 60 213 0.0 3.0 0.00 0.05 0.00 77 972.1
20260507152028 60 212 0.0 4.0 0.00 0.05 0.00 78 972.0
20260507151627 60 212 0.0 4.0 0.00 0.05 0.00 78 972.0
20260507151027 60 212 0.0 2.0 0.00 0.05 0.00 78 971.9
20260507150530 60 209 0.0 5.0 0.00 0.05 0.00 78 971.9
20260507150027 60 250 0.0 4.0 0.00 0.05 0.00 79 971.9
20260507145528 60 233 0.0 2.0 0.00 0.05 0.00 78 971.9
20260507145026 60 233 0.0 1.0 0.00 0.05 0.00 78 971.8
20260507144530 60 233 0.0 2.0 0.00 0.05 0.00 78 971.8
20260507144026 60 233 0.0 3.0 0.00 0.05 0.00 78 971.7
20260507143528 60 233 0.0 3.0 0.00 0.05 0.00 78 971.7
20260507143026 60 233 0.0 4.0 0.00 0.05 0.00 77 971.7
20260507142527 60 233 0.0 2.0 0.00 0.05 0.00 77 971.7
20260507142025 61 233 0.0 3.0 0.00 0.05 0.00 77 971.7
20260507141626 61 233 1.0 3.0 0.00 0.05 0.00 77 971.8
20260507141025 61 234 0.0 4.0 0.00 0.05 0.00 77 971.8
20260507140528 61 215 0.0 3.0 0.00 0.05 0.00 77 971.7
20260507140024 61 215 1.0 3.0 0.00 0.05 0.00 77 971.6
20260507135528 61 204 0.0 2.0 0.00 0.07 0.00 78 971.5
20260507135024 61 204 0.0 4.0 0.00 0.07 0.00 78 971.6
20260507134524 61 204 1.0 4.0 0.00 0.07 0.00 78 971.9
20260507134026 61 146 0.0 3.0 0.00 0.07 0.00 78 972.0
20260507133528 61 146 0.0 3.0 0.00 0.07 0.00 77 972.0
20260507133024 61 130 0.0 3.0 0.00 0.07 0.00 78 972.1
20260507132523 61 16 0.0 3.0 0.00 0.07 0.00 79 972.0
20260507132023 61 16 0.0 3.0 0.00 0.07 0.00 79 972.0
20260507131526 61 16 0.0 2.0 0.00 0.07 0.00 78 972.1
20260507131024 61 16 0.0 3.0 0.00 0.07 0.00 78 972.2
20260507130523 61 16 1.0 3.0 0.00 0.07 0.00 78 972.1
20260507130029 61 16 0.0 3.0 0.00 0.07 0.00 79 972.2
20260507125526 61 270 0.0 2.0 0.00 0.07 0.00 79 971.9
20260507125021 61 270 0.0 3.0 0.00 0.07 0.00 79 972.0
20260507124522 61 270 1.0 3.0 0.00 0.07 0.00 79 971.9
20260507124022 60 58 0.0 2.0 0.00 0.07 0.00 80 972.0
20260507123521 60 58 0.0 3.0 0.00 0.07 0.00 80 972.0
20260507123021 60 58 0.0 2.0 0.00 0.07 0.00 81 972.0
20260507122521 60 58 0.0 2.0 0.00 0.07 0.00 81 972.0
20260507122021 60 58 0.0 2.0 0.00 0.07 0.00 81 972.0
20260507121519 60 58 0.0 3.0 0.00 0.07 0.00 81 971.9
20260507121019 60 59 0.0 3.0 0.00 0.07 0.00 81 971.9
20260507120520 60 255 0.0 3.0 0.00 0.07 0.00 82 971.9
20260507120018 60 255 0.0 3.0 0.00 0.07 0.00 83 972.1
20260507115517 59 257 0.0 2.0 0.00 0.07 0.00 84 971.9
20260507115017 60 258 0.0 2.0 0.00 0.07 0.00 86 972.0
20260507114519 60 258 0.0 0.0 0.00 0.07 0.00 86 971.9
20260507114016 59 258 0.0 1.0 0.00 0.07 0.00 86 971.9
20260507113517 59 258 0.0 1.0 0.00 0.07 0.00 86 971.9
20260507113015 59 258 0.0 2.0 0.00 0.07 0.00 87 971.9
20260507112515 58 258 0.0 2.0 0.00 0.07 0.00 87 971.7
20260507112014 58 258 0.0 3.0 0.00 0.07 0.00 88 971.4
20260507111513 58 258 0.0 3.0 0.00 0.07 0.00 88 971.5
20260507111013 58 258 0.0 0.0 0.00 0.07 0.00 88 971.4
20260507110512 59 258 0.0 0.0 0.00 0.07 0.00 88 971.3
20260507110012 59 258 0.0 0.0 0.00 0.07 0.00 88 971.1
20260507105511 59 258 0.0 0.0 0.00 0.07 0.00 88 971.2
20260507105011 59 258 0.0 0.0 0.00 0.07 0.00 88 971.3
20260507104511 59 258 0.0 0.0 0.00 0.07 0.00 88 971.1
20260507104011 59 258 0.0 0.0 0.00 0.07 0.00 88 971.2
20260507103510 59 258 0.0 0.0 0.00 0.07 0.00 88 971.2
20260507103010 59 258 0.0 3.0 0.00 0.07 0.00 88 971.1
20260507102510 59 258 0.0 2.0 0.00 0.07 0.00 88 971.3
20260507102010 59 258 0.0 2.0 0.00 0.07 0.00 88 971.1
20260507101509 59 258 0.0 2.0 0.00 0.07 0.00 89 971.3
20260507101012 59 258 0.0 4.0 0.00 0.07 0.00 89 971.1
20260507100508 59 258 0.0 4.0 0.00 0.07 0.00 89 971.1
20260507100009 59 265 0.0 0.0 0.00 0.07 0.00 89 971.1
20260507095508 59 265 0.0 0.0 0.00 0.07 0.00 89 971.2
20260507095008 59 265 0.0 2.0 0.00 0.07 0.00 89 971.0
20260507094507 59 265 0.0 2.0 0.00 0.07 0.00 89 971.1
20260507094007 59 265 0.0 1.0 0.00 0.07 0.00 90 971.4
20260507093507 59 265 0.0 0.0 0.00 0.07 0.00 90 971.1
20260507093006 59 265 0.0 0.0 0.00 0.07 0.00 90 971.0
20260507092512 59 265 0.0 0.0 0.00 0.07 0.00 90 971.2
20260507092009 59 265 0.0 1.0 0.00 0.07 0.00 91 971.3
20260507091507 59 265 0.0 1.0 0.00 0.07 0.00 91 971.3
20260507091005 59 265 0.0 2.0 0.00 0.07 0.00 91 971.0
20260507090507 59 265 1.0 4.0 0.00 0.07 0.00 92 970.8
20260507090004 59 265 1.0 4.0 0.00 0.07 0.00 92 970.7
20260507085503 60 268 0.0 1.0 0.00 0.07 0.00 92 970.3
20260507085001 60 268 0.0 2.0 0.00 0.07 0.00 92 970.6
20260507084602 61 268 0.0 2.0 0.00 0.07 0.00 93 970.8
20260507084059 61 268 0.0 2.0 0.00 0.07 0.00 93 970.7
20260507083559 61 268 0.0 2.0 0.00 0.07 0.00 93 970.8
20260507083119 61 268 0.0 3.0 0.00 0.07 0.00 93 971.1
20260507082559 61 268 0.0 3.0 0.00 0.07 0.00 93 971.0
20260507082059 61 268 0.0 0.0 0.00 0.07 0.00 93 971.0
20260507081604 61 268 0.0 0.0 0.00 0.07 0.00 93 970.9
20260507081059 61 268 0.0 0.0 0.00 0.07 0.00 93 970.9
20260507080557 61 268 0.0 0.0 0.00 0.07 0.00 93 971.0
20260507080058 61 268 0.0 0.0 0.00 0.07 0.00 92 971.0
20260507075557 61 268 0.0 0.0 0.00 0.07 0.00 92 971.0
20260507075057 61 268 0.0 0.0 0.00 0.07 0.00 92 970.8
20260507074611 61 268 0.0 0.0 0.00 0.07 0.00 92 970.9
20260507074057 61 268 0.0 0.0 0.00 0.07 0.00 92 970.8
20260507073556 61 268 0.0 0.0 0.00 0.07 0.00 92 971.0
20260507073101 61 268 0.0 2.0 0.00 0.07 0.00 92 970.9
20260507072555 61 268 0.0 2.0 0.00 0.07 0.00 92 970.8
20260507072054 61 268 0.0 3.0 0.00 0.07 0.00 93 971.0
20260507071554 61 269 0.0 2.0 0.00 0.07 0.00 93 970.6
20260507071053 61 269 0.0 2.0 0.00 0.07 0.00 92 970.8
20260507070554 62 269 0.0 0.0 0.00 0.07 0.00 92 970.8
20260507070052 62 269 0.0 0.0 0.00 0.07 0.00 93 970.5
20260507065551 62 269 0.0 3.0 0.00 0.07 0.00 93 970.5
20260507065051 62 269 0.0 3.0 0.00 0.07 0.00 93 970.5
20260507064551 62 268 0.0 3.0 0.00 0.07 0.00 93 970.7
20260507064052 62 268 1.0 3.0 0.00 0.07 0.00 93 970.5
20260507063549 63 268 0.0 2.0 0.00 0.07 0.00 93 970.9
20260507063051 63 268 0.0 1.0 0.00 0.07 0.00 93 971.0
20260507062549 63 268 0.0 1.0 0.00 0.07 0.00 93 970.9
20260507062048 63 268 0.0 2.0 0.00 0.07 0.00 93 970.7
20260507061548 63 268 0.0 2.0 0.00 0.07 0.00 93 970.7
20260507061048 63 268 0.0 2.0 0.00 0.07 0.00 93 970.6
20260507060546 63 268 0.0 0.0 0.00 0.07 0.00 93 970.4
20260507060045 63 268 0.0 0.0 0.00 0.07 0.00 93 970.5
20260507055545 63 268 0.0 2.0 0.00 0.07 0.00 93 970.6
20260507055044 63 268 0.0 2.0 0.00 0.07 0.00 93 970.8